sensor_id;sensor_type;location;lat;lon;timestamp;temperature;humidity
24632;DHT22;59977;48.782;9.190;2023-09-08T00:06:52;21.20;99.90
24632;DHT22;59977;48.782;9.190;2023-09-08T00:09:17;21.10;99.90
24632;DHT22;59977;48.782;9.190;2023-09-08T00:11:43;21.00;99.90
24632;DHT22;59977;48.782;9.190;2023-09-08T00:14:09;21.10;99.90
24632;DHT22;59977;48.782;9.190;2023-09-08T00:19:00;20.90;99.90
24632;DHT22;59977;48.782;9.190;2023-09-08T00:21:26;21.30;99.90
24632;DHT22;59977;48.782;9.190;2023-09-08T00:23:52;21.50;99.90
24632;DHT22;59977;48.782;9.190;2023-09-08T00:26:18;21.50;99.90
24632;DHT22;59977;48.782;9.190;2023-09-08T00:28:44;21.00;99.90
24632;DHT22;59977;48.782;9.190;2023-09-08T00:31:09;21.20;99.90
24632;DHT22;59977;48.782;9.190;2023-09-08T00:43:19;21.90;99.90
24632;DHT22;59977;48.782;9.190;2023-09-08T00:45:45;21.10;99.90
24632;DHT22;59977;48.782;9.190;2023-09-08T00:48:12;20.90;99.90
24632;DHT22;59977;48.782;9.190;2023-09-08T00:50:38;20.90;99.90
24632;DHT22;59977;48.782;9.190;2023-09-08T00:55:31;20.70;99.90
24632;DHT22;59977;48.782;9.190;2023-09-08T00:57:58;20.80;99.90
24632;DHT22;59977;48.782;9.190;2023-09-08T01:00:24;21.50;99.90
24632;DHT22;59977;48.782;9.190;2023-09-08T01:05:16;20.90;99.90
24632;DHT22;59977;48.782;9.190;2023-09-08T01:07:42;20.70;99.90
24632;DHT22;59977;48.782;9.190;2023-09-08T01:10:09;21.00;99.90
24632;DHT22;59977;48.782;9.190;2023-09-08T01:15:02;20.70;99.90
24632;DHT22;59977;48.782;9.190;2023-09-08T01:19:59;20.60;99.90
24632;DHT22;59977;48.782;9.190;2023-09-08T01:27:44;20.70;99.90
24632;DHT22;59977;48.782;9.190;2023-09-08T01:30:11;20.70;99.90
24632;DHT22;59977;48.782;9.190;2023-09-08T01:32:39;20.70;99.90
24632;DHT22;59977;48.782;9.190;2023-09-08T01:35:05;21.20;99.90
24632;DHT22;59977;48.782;9.190;2023-09-08T01:39:57;20.60;99.90
24632;DHT22;59977;48.782;9.190;2023-09-08T01:42:23;20.20;99.90
24632;DHT22;59977;48.782;9.190;2023-09-08T01:52:17;20.60;99.90
24632;DHT22;59977;48.782;9.190;2023-09-08T01:54:43;20.40;99.90
24632;DHT22;59977;48.782;9.190;2023-09-08T01:57:08;20.20;99.90
24632;DHT22;59977;48.782;9.190;2023-09-08T01:59:34;20.10;99.90
24632;DHT22;59977;48.782;9.190;2023-09-08T02:02:00;20.30;99.90
24632;DHT22;59977;48.782;9.190;2023-09-08T02:06:51;19.80;99.90
24632;DHT22;59977;48.782;9.190;2023-09-08T02:09:17;20.00;99.90
24632;DHT22;59977;48.782;9.190;2023-09-08T02:11:42;19.60;99.90
24632;DHT22;59977;48.782;9.190;2023-09-08T02:14:08;19.80;99.90
24632;DHT22;59977;48.782;9.190;2023-09-08T02:16:34;20.10;99.90
24632;DHT22;59977;48.782;9.190;2023-09-08T02:18:59;19.70;99.90
24632;DHT22;59977;48.782;9.190;2023-09-08T02:21:25;19.60;99.90
24632;DHT22;59977;48.782;9.190;2023-09-08T02:23:51;19.80;99.90
24632;DHT22;59977;48.782;9.190;2023-09-08T02:26:16;19.90;99.90
24632;DHT22;59977;48.782;9.190;2023-09-08T02:28:42;19.80;99.90
24632;DHT22;59977;48.782;9.190;2023-09-08T02:31:07;19.60;99.90
24632;DHT22;59977;48.782;9.190;2023-09-08T02:33:33;19.40;99.90
24632;DHT22;59977;48.782;9.190;2023-09-08T02:36:03;19.60;99.90
24632;DHT22;59977;48.782;9.190;2023-09-08T02:40:55;19.80;99.90
24632;DHT22;59977;48.782;9.190;2023-09-08T02:43:20;19.20;99.90
24632;DHT22;59977;48.782;9.190;2023-09-08T02:45:46;19.50;99.90
24632;DHT22;59977;48.782;9.190;2023-09-08T02:48:12;20.40;99.90
24632;DHT22;59977;48.782;9.190;2023-09-08T02:50:38;20.20;99.90
24632;DHT22;59977;48.782;9.190;2023-09-08T02:53:03;19.70;99.90
24632;DHT22;59977;48.782;9.190;2023-09-08T03:00:22;19.80;99.90
24632;DHT22;59977;48.782;9.190;2023-09-08T03:02:48;20.00;99.90
24632;DHT22;59977;48.782;9.190;2023-09-08T03:05:13;20.50;99.90
24632;DHT22;59977;48.782;9.190;2023-09-08T03:07:39;19.90;99.90
24632;DHT22;59977;48.782;9.190;2023-09-08T03:10:05;19.90;99.90
24632;DHT22;59977;48.782;9.190;2023-09-08T03:12:31;19.90;99.90
24632;DHT22;59977;48.782;9.190;2023-09-08T03:14:57;19.70;99.90
24632;DHT22;59977;48.782;9.190;2023-09-08T03:17:22;19.90;99.90
24632;DHT22;59977;48.782;9.190;2023-09-08T03:19:48;20.10;99.90
24632;DHT22;59977;48.782;9.190;2023-09-08T03:22:13;19.50;99.90
24632;DHT22;59977;48.782;9.190;2023-09-08T03:24:39;20.10;99.90
24632;DHT22;59977;48.782;9.190;2023-09-08T03:27:05;19.40;99.90
24632;DHT22;59977;48.782;9.190;2023-09-08T03:29:30;19.20;99.90
24632;DHT22;59977;48.782;9.190;2023-09-08T03:31:56;19.20;99.90
24632;DHT22;59977;48.782;9.190;2023-09-08T03:34:21;19.40;99.90
24632;DHT22;59977;48.782;9.190;2023-09-08T03:36:48;19.30;99.90
24632;DHT22;59977;48.782;9.190;2023-09-08T03:39:14;19.20;99.90
24632;DHT22;59977;48.782;9.190;2023-09-08T03:41:39;19.60;99.90
24632;DHT22;59977;48.782;9.190;2023-09-08T03:44:05;19.40;99.90
24632;DHT22;59977;48.782;9.190;2023-09-08T03:46:31;19.30;99.90
24632;DHT22;59977;48.782;9.190;2023-09-08T03:48:56;19.80;99.90
24632;DHT22;59977;48.782;9.190;2023-09-08T03:51:26;19.50;99.90
24632;DHT22;59977;48.782;9.190;2023-09-08T03:53:52;19.30;99.90
24632;DHT22;59977;48.782;9.190;2023-09-08T03:56:18;19.10;99.90
24632;DHT22;59977;48.782;9.190;2023-09-08T03:58:43;19.10;99.90
24632;DHT22;59977;48.782;9.190;2023-09-08T04:01:09;18.90;99.90
24632;DHT22;59977;48.782;9.190;2023-09-08T04:03:35;19.00;99.90
24632;DHT22;59977;48.782;9.190;2023-09-08T04:06:00;19.20;99.90
24632;DHT22;59977;48.782;9.190;2023-09-08T04:08:26;18.80;99.90
24632;DHT22;59977;48.782;9.190;2023-09-08T04:10:52;19.00;99.90
24632;DHT22;59977;48.782;9.190;2023-09-08T04:13:17;18.50;99.90
24632;DHT22;59977;48.782;9.190;2023-09-08T04:15:43;19.10;99.90
24632;DHT22;59977;48.782;9.190;2023-09-08T04:18:09;18.90;99.90
24632;DHT22;59977;48.782;9.190;2023-09-08T04:20:34;19.20;99.90
24632;DHT22;59977;48.782;9.190;2023-09-08T04:23:00;19.00;99.90
24632;DHT22;59977;48.782;9.190;2023-09-08T04:25:25;19.00;99.90
24632;DHT22;59977;48.782;9.190;2023-09-08T04:27:51;18.90;99.90
24632;DHT22;59977;48.782;9.190;2023-09-08T04:30:17;18.80;99.90
24632;DHT22;59977;48.782;9.190;2023-09-08T04:32:43;19.00;99.90
24632;DHT22;59977;48.782;9.190;2023-09-08T04:35:09;18.80;99.90
24632;DHT22;59977;48.782;9.190;2023-09-08T04:37:35;18.80;99.90
24632;DHT22;59977;48.782;9.190;2023-09-08T04:40:02;18.90;99.90
24632;DHT22;59977;48.782;9.190;2023-09-08T04:42:28;18.70;99.90
24632;DHT22;59977;48.782;9.190;2023-09-08T04:47:20;18.90;99.90
24632;DHT22;59977;48.782;9.190;2023-09-08T04:49:46;18.80;99.90
24632;DHT22;59977;48.782;9.190;2023-09-08T04:52:12;18.70;99.90
24632;DHT22;59977;48.782;9.190;2023-09-08T04:54:37;19.20;99.90
24632;DHT22;59977;48.782;9.190;2023-09-08T04:57:03;18.70;99.90
24632;DHT22;59977;48.782;9.190;2023-09-08T04:59:29;19.30;99.90
24632;DHT22;59977;48.782;9.190;2023-09-08T05:01:54;18.50;99.90
24632;DHT22;59977;48.782;9.190;2023-09-08T05:04:21;18.70;99.90
24632;DHT22;59977;48.782;9.190;2023-09-08T05:06:47;18.90;99.90
24632;DHT22;59977;48.782;9.190;2023-09-08T05:09:12;18.50;99.90
24632;DHT22;59977;48.782;9.190;2023-09-08T05:11:38;18.30;99.90
24632;DHT22;59977;48.782;9.190;2023-09-08T05:14:04;18.30;99.90
24632;DHT22;59977;48.782;9.190;2023-09-08T05:16:30;18.50;99.90
24632;DHT22;59977;48.782;9.190;2023-09-08T05:19:03;18.50;99.90
24632;DHT22;59977;48.782;9.190;2023-09-08T05:26:22;18.60;99.90
24632;DHT22;59977;48.782;9.190;2023-09-08T05:28:48;18.90;99.90
24632;DHT22;59977;48.782;9.190;2023-09-08T05:31:13;18.50;99.90
24632;DHT22;59977;48.782;9.190;2023-09-08T05:33:39;18.50;99.90
24632;DHT22;59977;48.782;9.190;2023-09-08T05:36:05;18.80;99.90
24632;DHT22;59977;48.782;9.190;2023-09-08T05:48:16;18.10;99.90
24632;DHT22;59977;48.782;9.190;2023-09-08T05:50:42;18.40;99.90
24632;DHT22;59977;48.782;9.190;2023-09-08T05:53:07;18.20;99.90
24632;DHT22;59977;48.782;9.190;2023-09-08T05:55:33;18.00;99.90
24632;DHT22;59977;48.782;9.190;2023-09-08T06:10:09;18.80;99.90
24632;DHT22;59977;48.782;9.190;2023-09-08T06:12:35;18.70;99.90
24632;DHT22;59977;48.782;9.190;2023-09-08T06:15:04;19.10;99.90
24632;DHT22;59977;48.782;9.190;2023-09-08T06:17:30;18.90;99.90
24632;DHT22;59977;48.782;9.190;2023-09-08T06:19:55;18.80;99.90
24632;DHT22;59977;48.782;9.190;2023-09-08T06:22:22;19.20;99.90
24632;DHT22;59977;48.782;9.190;2023-09-08T06:24:47;19.10;99.90
24632;DHT22;59977;48.782;9.190;2023-09-08T06:32:09;19.20;99.90
24632;DHT22;59977;48.782;9.190;2023-09-08T06:37:01;19.40;99.90
24632;DHT22;59977;48.782;9.190;2023-09-08T06:39:27;19.50;99.90
24632;DHT22;59977;48.782;9.190;2023-09-08T07:01:25;20.20;99.90
24632;DHT22;59977;48.782;9.190;2023-09-08T07:03:51;19.90;99.90
24632;DHT22;59977;48.782;9.190;2023-09-08T07:16:01;20.30;99.90
24632;DHT22;59977;48.782;9.190;2023-09-08T07:25:46;20.60;99.90
24632;DHT22;59977;48.782;9.190;2023-09-08T07:33:04;20.50;99.90
24632;DHT22;59977;48.782;9.190;2023-09-08T07:42:49;20.60;99.90
24632;DHT22;59977;48.782;9.190;2023-09-08T08:05:02;21.30;99.90
24632;DHT22;59977;48.782;9.190;2023-09-08T08:09:55;21.50;99.90
24632;DHT22;59977;48.782;9.190;2023-09-08T08:14:46;21.50;99.90
24632;DHT22;59977;48.782;9.190;2023-09-08T08:22:04;21.90;99.90
24632;DHT22;59977;48.782;9.190;2023-09-08T08:26:56;21.90;99.90
24632;DHT22;59977;48.782;9.190;2023-09-08T08:36:40;22.20;99.90
24632;DHT22;59977;48.782;9.190;2023-09-08T08:53:49;22.60;99.90
24632;DHT22;59977;48.782;9.190;2023-09-08T08:56:15;23.20;99.90
24632;DHT22;59977;48.782;9.190;2023-09-08T09:01:10;23.00;99.90
24632;DHT22;59977;48.782;9.190;2023-09-08T09:03:37;23.00;99.90
24632;DHT22;59977;48.782;9.190;2023-09-08T09:08:31;23.00;99.90
24632;DHT22;59977;48.782;9.190;2023-09-08T09:15:50;23.50;99.90
24632;DHT22;59977;48.782;9.190;2023-09-08T09:20:54;23.40;99.90
24632;DHT22;59977;48.782;9.190;2023-09-08T09:26:02;23.50;99.90
24632;DHT22;59977;48.782;9.190;2023-09-08T09:33:24;23.50;99.90
24632;DHT22;59977;48.782;9.190;2023-09-08T09:35:52;24.00;99.90
24632;DHT22;59977;48.782;9.190;2023-09-08T09:38:19;24.00;99.90
24632;DHT22;59977;48.782;9.190;2023-09-08T09:40:46;23.80;99.90
24632;DHT22;59977;48.782;9.190;2023-09-08T09:45:39;24.20;99.90
24632;DHT22;59977;48.782;9.190;2023-09-08T09:50:40;24.20;99.90
24632;DHT22;59977;48.782;9.190;2023-09-08T09:55:37;24.40;99.90
24632;DHT22;59977;48.782;9.190;2023-09-08T10:00:31;24.50;99.90
24632;DHT22;59977;48.782;9.190;2023-09-08T10:05:27;24.60;99.90
24632;DHT22;59977;48.782;9.190;2023-09-08T10:15:20;24.70;99.90
24632;DHT22;59977;48.782;9.190;2023-09-08T10:17:54;24.80;99.90
24632;DHT22;59977;48.782;9.190;2023-09-08T10:20:24;24.80;99.90
24632;DHT22;59977;48.782;9.190;2023-09-08T10:25:24;24.90;99.90
24632;DHT22;59977;48.782;9.190;2023-09-08T10:27:53;25.00;99.90
24632;DHT22;59977;48.782;9.190;2023-09-08T10:30:20;25.20;99.90
24632;DHT22;59977;48.782;9.190;2023-09-08T10:35:15;25.00;99.90
24632;DHT22;59977;48.782;9.190;2023-09-08T10:37:43;25.00;99.90
24632;DHT22;59977;48.782;9.190;2023-09-08T10:42:47;25.10;99.90
24632;DHT22;59977;48.782;9.190;2023-09-08T10:45:19;25.20;99.90
24632;DHT22;59977;48.782;9.190;2023-09-08T10:52:44;25.50;99.90
24632;DHT22;59977;48.782;9.190;2023-09-08T10:57:37;25.40;99.90
24632;DHT22;59977;48.782;9.190;2023-09-08T11:05:12;25.30;99.90
24632;DHT22;59977;48.782;9.190;2023-09-08T11:07:40;25.30;99.90
24632;DHT22;59977;48.782;9.190;2023-09-08T11:15:02;25.80;99.90
24632;DHT22;59977;48.782;9.190;2023-09-08T11:19:57;25.90;99.90
24632;DHT22;59977;48.782;9.190;2023-09-08T11:22:24;25.80;99.90
24632;DHT22;59977;48.782;9.190;2023-09-08T11:27:17;25.70;99.90
24632;DHT22;59977;48.782;9.190;2023-09-08T11:29:44;25.80;99.90
24632;DHT22;59977;48.782;9.190;2023-09-08T11:32:10;25.70;99.90
24632;DHT22;59977;48.782;9.190;2023-09-08T11:34:36;25.60;99.90
24632;DHT22;59977;48.782;9.190;2023-09-08T11:37:12;25.80;99.90
24632;DHT22;59977;48.782;9.190;2023-09-08T11:39:47;25.40;99.90
24632;DHT22;59977;48.782;9.190;2023-09-08T11:42:15;25.70;99.90
24632;DHT22;59977;48.782;9.190;2023-09-08T11:44:42;25.80;99.90
24632;DHT22;59977;48.782;9.190;2023-09-08T11:47:09;25.90;99.90
24632;DHT22;59977;48.782;9.190;2023-09-08T11:49:40;25.80;99.90
24632;DHT22;59977;48.782;9.190;2023-09-08T11:54:34;25.80;99.90
24632;DHT22;59977;48.782;9.190;2023-09-08T11:59:32;26.00;99.90
24632;DHT22;59977;48.782;9.190;2023-09-08T12:01:58;25.90;99.90
24632;DHT22;59977;48.782;9.190;2023-09-08T12:04:24;26.20;99.90
24632;DHT22;59977;48.782;9.190;2023-09-08T12:09:17;26.00;99.90
24632;DHT22;59977;48.782;9.190;2023-09-08T12:14:11;26.10;99.90
24632;DHT22;59977;48.782;9.190;2023-09-08T12:28:55;26.00;99.90
24632;DHT22;59977;48.782;9.190;2023-09-08T12:33:47;25.90;99.90
24632;DHT22;59977;48.782;9.190;2023-09-08T12:36:14;26.70;99.90
24632;DHT22;59977;48.782;9.190;2023-09-08T12:43:32;26.50;99.90
24632;DHT22;59977;48.782;9.190;2023-09-08T12:45:59;26.00;99.90
24632;DHT22;59977;48.782;9.190;2023-09-08T12:50:51;26.60;99.90
24632;DHT22;59977;48.782;9.190;2023-09-08T12:53:17;26.30;99.90
24632;DHT22;59977;48.782;9.190;2023-09-08T12:58:09;26.20;99.90
24632;DHT22;59977;48.782;9.190;2023-09-08T13:00:35;27.20;99.90
24632;DHT22;59977;48.782;9.190;2023-09-08T13:03:01;27.20;99.90
24632;DHT22;59977;48.782;9.190;2023-09-08T13:05:27;27.40;99.80
24632;DHT22;59977;48.782;9.190;2023-09-08T13:07:53;28.10;98.50
24632;DHT22;59977;48.782;9.190;2023-09-08T13:10:19;28.10;98.90
24632;DHT22;59977;48.782;9.190;2023-09-08T13:15:12;27.70;97.60
24632;DHT22;59977;48.782;9.190;2023-09-08T13:20:04;28.50;95.70
24632;DHT22;59977;48.782;9.190;2023-09-08T13:22:30;28.60;96.10
24632;DHT22;59977;48.782;9.190;2023-09-08T13:27:21;28.70;94.50
24632;DHT22;59977;48.782;9.190;2023-09-08T13:34:40;29.90;93.20
24632;DHT22;59977;48.782;9.190;2023-09-08T13:37:05;30.00;92.70
24632;DHT22;59977;48.782;9.190;2023-09-08T13:39:31;30.00;92.50
24632;DHT22;59977;48.782;9.190;2023-09-08T13:41:59;30.10;92.30
24632;DHT22;59977;48.782;9.190;2023-09-08T13:46:52;30.70;90.80
24632;DHT22;59977;48.782;9.190;2023-09-08T13:49:19;30.00;89.60
24632;DHT22;59977;48.782;9.190;2023-09-08T13:51:45;31.00;87.90
24632;DHT22;59977;48.782;9.190;2023-09-08T13:54:11;31.20;85.60
24632;DHT22;59977;48.782;9.190;2023-09-08T13:56:41;31.20;83.80
24632;DHT22;59977;48.782;9.190;2023-09-08T14:04:01;31.10;79.50
24632;DHT22;59977;48.782;9.190;2023-09-08T14:06:27;31.10;79.50
24632;DHT22;59977;48.782;9.190;2023-09-08T14:08:53;31.30;79.60
24632;DHT22;59977;48.782;9.190;2023-09-08T14:11:19;31.30;79.40
24632;DHT22;59977;48.782;9.190;2023-09-08T14:13:44;31.90;78.20
24632;DHT22;59977;48.782;9.190;2023-09-08T14:16:13;32.10;77.20
24632;DHT22;59977;48.782;9.190;2023-09-08T14:21:06;32.30;75.40
24632;DHT22;59977;48.782;9.190;2023-09-08T14:26:00;33.10;72.40
24632;DHT22;59977;48.782;9.190;2023-09-08T14:30:52;33.60;71.00
24632;DHT22;59977;48.782;9.190;2023-09-08T14:33:18;33.50;70.10
24632;DHT22;59977;48.782;9.190;2023-09-08T14:35:44;33.60;68.80
24632;DHT22;59977;48.782;9.190;2023-09-08T14:38:12;34.80;67.40
24632;DHT22;59977;48.782;9.190;2023-09-08T14:40:38;34.80;66.30
24632;DHT22;59977;48.782;9.190;2023-09-08T14:43:03;35.10;63.10
24632;DHT22;59977;48.782;9.190;2023-09-08T14:45:29;34.80;63.40
24632;DHT22;59977;48.782;9.190;2023-09-08T14:50:20;35.30;61.40
24632;DHT22;59977;48.782;9.190;2023-09-08T14:52:46;35.30;60.70
24632;DHT22;59977;48.782;9.190;2023-09-08T14:57:38;35.80;58.30
24632;DHT22;59977;48.782;9.190;2023-09-08T15:00:04;35.80;57.50
24632;DHT22;59977;48.782;9.190;2023-09-08T15:02:33;36.30;56.10
24632;DHT22;59977;48.782;9.190;2023-09-08T15:12:17;37.20;53.80
24632;DHT22;59977;48.782;9.190;2023-09-08T15:17:11;37.30;52.90
24632;DHT22;59977;48.782;9.190;2023-09-08T15:19:38;37.40;52.90
24632;DHT22;59977;48.782;9.190;2023-09-08T15:22:04;37.70;52.50
24632;DHT22;59977;48.782;9.190;2023-09-08T15:24:29;37.90;51.50
24632;DHT22;59977;48.782;9.190;2023-09-08T15:26:55;38.20;51.40
24632;DHT22;59977;48.782;9.190;2023-09-08T15:31:48;38.10;50.50
24632;DHT22;59977;48.782;9.190;2023-09-08T15:34:14;38.40;50.70
24632;DHT22;59977;48.782;9.190;2023-09-08T15:36:40;37.90;49.30
24632;DHT22;59977;48.782;9.190;2023-09-08T15:39:05;37.80;51.30
24632;DHT22;59977;48.782;9.190;2023-09-08T15:41:31;37.60;50.60
24632;DHT22;59977;48.782;9.190;2023-09-08T15:43:57;37.60;50.20
24632;DHT22;59977;48.782;9.190;2023-09-08T15:46:22;37.80;49.30
24632;DHT22;59977;48.782;9.190;2023-09-08T15:48:48;38.30;48.80
24632;DHT22;59977;48.782;9.190;2023-09-08T15:51:14;38.60;47.80
24632;DHT22;59977;48.782;9.190;2023-09-08T15:53:40;38.60;47.50
24632;DHT22;59977;48.782;9.190;2023-09-08T15:56:08;38.80;47.50
24632;DHT22;59977;48.782;9.190;2023-09-08T15:58:34;39.20;46.80
24632;DHT22;59977;48.782;9.190;2023-09-08T16:01:01;38.40;46.50
24632;DHT22;59977;48.782;9.190;2023-09-08T16:03:26;34.70;49.50
24632;DHT22;59977;48.782;9.190;2023-09-08T16:05:52;34.50;50.50
24632;DHT22;59977;48.782;9.190;2023-09-08T16:08:18;33.10;53.20
24632;DHT22;59977;48.782;9.190;2023-09-08T16:10:45;32.10;54.90
24632;DHT22;59977;48.782;9.190;2023-09-08T16:13:11;31.40;57.80
24632;DHT22;59977;48.782;9.190;2023-09-08T16:15:36;31.00;59.40
24632;DHT22;59977;48.782;9.190;2023-09-08T16:18:03;30.50;60.80
24632;DHT22;59977;48.782;9.190;2023-09-08T16:20:30;30.30;62.00
24632;DHT22;59977;48.782;9.190;2023-09-08T16:22:57;30.20;62.50
24632;DHT22;59977;48.782;9.190;2023-09-08T16:25:23;30.10;63.00
24632;DHT22;59977;48.782;9.190;2023-09-08T16:27:49;30.00;63.70
24632;DHT22;59977;48.782;9.190;2023-09-08T16:30:14;29.90;63.90
24632;DHT22;59977;48.782;9.190;2023-09-08T16:32:40;29.80;64.50
24632;DHT22;59977;48.782;9.190;2023-09-08T16:35:06;29.70;64.80
24632;DHT22;59977;48.782;9.190;2023-09-08T16:37:32;29.60;65.40
24632;DHT22;59977;48.782;9.190;2023-09-08T16:39:57;29.50;65.40
24632;DHT22;59977;48.782;9.190;2023-09-08T16:42:23;29.40;65.70
24632;DHT22;59977;48.782;9.190;2023-09-08T16:44:48;31.80;68.20
24632;DHT22;59977;48.782;9.190;2023-09-08T16:47:14;29.30;66.70
24632;DHT22;59977;48.782;9.190;2023-09-08T16:49:40;29.20;66.70
24632;DHT22;59977;48.782;9.190;2023-09-08T16:52:06;29.20;66.90
24632;DHT22;59977;48.782;9.190;2023-09-08T16:54:31;29.10;67.20
24632;DHT22;59977;48.782;9.190;2023-09-08T16:56:57;29.10;67.50
24632;DHT22;59977;48.782;9.190;2023-09-08T16:59:23;29.00;67.70
24632;DHT22;59977;48.782;9.190;2023-09-08T17:01:49;29.00;67.60
24632;DHT22;59977;48.782;9.190;2023-09-08T17:04:15;29.00;67.30
24632;DHT22;59977;48.782;9.190;2023-09-08T17:06:41;28.90;67.40
24632;DHT22;59977;48.782;9.190;2023-09-08T17:09:13;28.90;67.30
24632;DHT22;59977;48.782;9.190;2023-09-08T17:11:39;28.80;67.30
24632;DHT22;59977;48.782;9.190;2023-09-08T17:14:06;28.70;68.00
24632;DHT22;59977;48.782;9.190;2023-09-08T17:16:31;28.70;68.10
24632;DHT22;59977;48.782;9.190;2023-09-08T17:18:57;28.50;67.40
24632;DHT22;59977;48.782;9.190;2023-09-08T17:21:23;28.50;67.70
24632;DHT22;59977;48.782;9.190;2023-09-08T17:26:14;28.40;67.90
24632;DHT22;59977;48.782;9.190;2023-09-08T17:28:40;28.40;68.30
24632;DHT22;59977;48.782;9.190;2023-09-08T17:31:06;28.30;68.50
24632;DHT22;59977;48.782;9.190;2023-09-08T17:33:32;28.30;68.90
24632;DHT22;59977;48.782;9.190;2023-09-08T17:35:58;28.20;69.30
24632;DHT22;59977;48.782;9.190;2023-09-08T17:38:23;28.20;69.90
24632;DHT22;59977;48.782;9.190;2023-09-08T17:40:49;28.10;70.10
24632;DHT22;59977;48.782;9.190;2023-09-08T17:43:15;28.10;70.90
24632;DHT22;59977;48.782;9.190;2023-09-08T17:45:40;28.00;71.50
24632;DHT22;59977;48.782;9.190;2023-09-08T17:48:06;27.90;72.40
24632;DHT22;59977;48.782;9.190;2023-09-08T17:50:32;27.90;73.30
24632;DHT22;59977;48.782;9.190;2023-09-08T17:52:57;27.80;74.00
24632;DHT22;59977;48.782;9.190;2023-09-08T17:55:23;27.60;74.60
24632;DHT22;59977;48.782;9.190;2023-09-08T17:57:51;27.50;75.10
24632;DHT22;59977;48.782;9.190;2023-09-08T18:00:17;27.40;75.60
24632;DHT22;59977;48.782;9.190;2023-09-08T18:02:43;27.40;76.20
24632;DHT22;59977;48.782;9.190;2023-09-08T18:07:35;27.30;77.00
24632;DHT22;59977;48.782;9.190;2023-09-08T18:10:03;27.20;77.10
24632;DHT22;59977;48.782;9.190;2023-09-08T18:14:54;27.10;77.80
24632;DHT22;59977;48.782;9.190;2023-09-08T18:17:21;27.00;78.10
24632;DHT22;59977;48.782;9.190;2023-09-08T18:19:46;27.00;78.80
24632;DHT22;59977;48.782;9.190;2023-09-08T18:22:12;26.90;79.50
24632;DHT22;59977;48.782;9.190;2023-09-08T18:24:38;26.90;79.70
24632;DHT22;59977;48.782;9.190;2023-09-08T18:27:03;26.80;80.00
24632;DHT22;59977;48.782;9.190;2023-09-08T18:31:58;26.80;81.10
24632;DHT22;59977;48.782;9.190;2023-09-08T18:34:23;26.70;81.40
24632;DHT22;59977;48.782;9.190;2023-09-08T18:36:50;26.60;81.90
24632;DHT22;59977;48.782;9.190;2023-09-08T18:41:41;26.40;83.00
24632;DHT22;59977;48.782;9.190;2023-09-08T18:44:07;26.40;83.30
24632;DHT22;59977;48.782;9.190;2023-09-08T18:46:32;26.40;83.50
24632;DHT22;59977;48.782;9.190;2023-09-08T18:51:24;26.20;83.70
24632;DHT22;59977;48.782;9.190;2023-09-08T18:53:50;26.20;84.10
24632;DHT22;59977;48.782;9.190;2023-09-08T18:58:46;26.10;84.40
24632;DHT22;59977;48.782;9.190;2023-09-08T19:01:12;26.10;84.70
24632;DHT22;59977;48.782;9.190;2023-09-08T19:03:38;26.10;85.20
24632;DHT22;59977;48.782;9.190;2023-09-08T19:06:06;26.10;85.60
24632;DHT22;59977;48.782;9.190;2023-09-08T19:10:59;26.00;86.40
24632;DHT22;59977;48.782;9.190;2023-09-08T19:13:25;26.00;86.90
24632;DHT22;59977;48.782;9.190;2023-09-08T19:15:50;25.90;87.30
24632;DHT22;59977;48.782;9.190;2023-09-08T19:18:16;25.80;87.60
24632;DHT22;59977;48.782;9.190;2023-09-08T19:20:43;25.80;88.10
24632;DHT22;59977;48.782;9.190;2023-09-08T19:23:09;25.80;88.60
24632;DHT22;59977;48.782;9.190;2023-09-08T19:25:40;25.70;89.00
24632;DHT22;59977;48.782;9.190;2023-09-08T19:28:07;25.70;89.40
24632;DHT22;59977;48.782;9.190;2023-09-08T19:30:33;25.60;89.70
24632;DHT22;59977;48.782;9.190;2023-09-08T19:35:25;25.50;90.40
24632;DHT22;59977;48.782;9.190;2023-09-08T19:37:52;25.50;90.60
24632;DHT22;59977;48.782;9.190;2023-09-08T19:42:43;25.40;90.90
24632;DHT22;59977;48.782;9.190;2023-09-08T19:45:10;25.40;91.20
24632;DHT22;59977;48.782;9.190;2023-09-08T19:47:37;25.40;91.30
24632;DHT22;59977;48.782;9.190;2023-09-08T19:50:04;25.30;91.50
24632;DHT22;59977;48.782;9.190;2023-09-08T19:52:29;25.30;91.80
24632;DHT22;59977;48.782;9.190;2023-09-08T19:54:55;25.20;92.10
24632;DHT22;59977;48.782;9.190;2023-09-08T19:57:21;25.20;92.50
24632;DHT22;59977;48.782;9.190;2023-09-08T20:04:38;25.00;93.80
24632;DHT22;59977;48.782;9.190;2023-09-08T20:14:23;24.90;94.50
24632;DHT22;59977;48.782;9.190;2023-09-08T20:16:50;24.80;94.70
24632;DHT22;59977;48.782;9.190;2023-09-08T20:19:15;24.90;95.00
24632;DHT22;59977;48.782;9.190;2023-09-08T20:21:41;24.80;95.20
24632;DHT22;59977;48.782;9.190;2023-09-08T20:33:51;24.60;96.60
24632;DHT22;59977;48.782;9.190;2023-09-08T20:36:17;24.50;96.90
24632;DHT22;59977;48.782;9.190;2023-09-08T20:38:43;24.40;97.20
24632;DHT22;59977;48.782;9.190;2023-09-08T20:41:10;24.40;97.50
24632;DHT22;59977;48.782;9.190;2023-09-08T20:46:02;23.70;97.80
24632;DHT22;59977;48.782;9.190;2023-09-08T20:48:29;24.30;98.30
24632;DHT22;59977;48.782;9.190;2023-09-08T20:53:26;24.20;98.80
24632;DHT22;59977;48.782;9.190;2023-09-08T20:55:51;24.20;99.10
24632;DHT22;59977;48.782;9.190;2023-09-08T20:58:17;24.20;99.20
24632;DHT22;59977;48.782;9.190;2023-09-08T21:10:27;24.30;99.90
24632;DHT22;59977;48.782;9.190;2023-09-08T21:15:19;24.30;99.90
24632;DHT22;59977;48.782;9.190;2023-09-08T21:20:10;24.20;99.90
24632;DHT22;59977;48.782;9.190;2023-09-08T21:25:03;24.10;99.90
24632;DHT22;59977;48.782;9.190;2023-09-08T21:29:55;24.20;99.90
24632;DHT22;59977;48.782;9.190;2023-09-08T21:32:22;24.10;99.90
24632;DHT22;59977;48.782;9.190;2023-09-08T21:34:54;24.00;99.90
24632;DHT22;59977;48.782;9.190;2023-09-08T21:39:46;24.10;99.90
24632;DHT22;59977;48.782;9.190;2023-09-08T21:42:11;23.90;99.90
24632;DHT22;59977;48.782;9.190;2023-09-08T21:44:37;24.00;99.90
24632;DHT22;59977;48.782;9.190;2023-09-08T21:47:03;24.00;99.90
24632;DHT22;59977;48.782;9.190;2023-09-08T21:49:32;23.90;99.90
24632;DHT22;59977;48.782;9.190;2023-09-08T21:52:01;23.80;99.90
24632;DHT22;59977;48.782;9.190;2023-09-08T21:54:27;23.90;99.90
24632;DHT22;59977;48.782;9.190;2023-09-08T21:56:52;23.90;99.90
24632;DHT22;59977;48.782;9.190;2023-09-08T21:59:18;23.90;99.90
24632;DHT22;59977;48.782;9.190;2023-09-08T22:01:46;23.80;99.90
24632;DHT22;59977;48.782;9.190;2023-09-08T22:04:12;23.80;99.90
24632;DHT22;59977;48.782;9.190;2023-09-08T22:06:37;23.80;99.90
24632;DHT22;59977;48.782;9.190;2023-09-08T22:09:04;23.70;99.90
24632;DHT22;59977;48.782;9.190;2023-09-08T22:11:30;23.60;99.90
24632;DHT22;59977;48.782;9.190;2023-09-08T22:13:56;23.70;99.90
24632;DHT22;59977;48.782;9.190;2023-09-08T22:16:22;23.60;99.90